sensor_id;sensor_type;location;lat;lon;timestamp;P1;durP1;ratioP1;P2;durP2;ratioP2
54979;SDS011;44101;50.462;30.432;2022-08-05T00:00:17;15.20;;;10.55;;
54979;SDS011;44101;50.462;30.432;2022-08-05T00:02:44;15.30;;;10.80;;
54979;SDS011;44101;50.462;30.432;2022-08-05T00:05:11;14.07;;;10.05;;
54979;SDS011;44101;50.462;30.432;2022-08-05T00:07:36;11.20;;;10.00;;
54979;SDS011;44101;50.462;30.432;2022-08-05T00:10:02;11.98;;;10.43;;
54979;SDS011;44101;50.462;30.432;2022-08-05T00:12:28;14.30;;;10.73;;
54979;SDS011;44101;50.462;30.432;2022-08-05T00:14:54;14.77;;;10.43;;
54979;SDS011;44101;50.462;30.432;2022-08-05T00:17:20;11.43;;;10.27;;
54979;SDS011;44101;50.462;30.432;2022-08-05T00:19:46;12.30;;;10.13;;
54979;SDS011;44101;50.462;30.432;2022-08-05T00:22:12;19.77;;;10.88;;
54979;SDS011;44101;50.462;30.432;2022-08-05T00:24:38;10.88;;;9.40;;
54979;SDS011;44101;50.462;30.432;2022-08-05T00:27:03;14.00;;;10.38;;
54979;SDS011;44101;50.462;30.432;2022-08-05T00:29:29;11.30;;;10.10;;
54979;SDS011;44101;50.462;30.432;2022-08-05T00:31:55;12.20;;;10.57;;
54979;SDS011;44101;50.462;30.432;2022-08-05T00:34:21;12.73;;;9.48;;
54979;SDS011;44101;50.462;30.432;2022-08-05T00:36:46;12.98;;;10.65;;
54979;SDS011;44101;50.462;30.432;2022-08-05T00:39:12;11.05;;;8.77;;
54979;SDS011;44101;50.462;30.432;2022-08-05T00:41:38;10.85;;;9.13;;
54979;SDS011;44101;50.462;30.432;2022-08-05T00:44:04;13.65;;;9.70;;
54979;SDS011;44101;50.462;30.432;2022-08-05T00:46:29;10.25;;;9.32;;
54979;SDS011;44101;50.462;30.432;2022-08-05T00:48:55;10.00;;;8.75;;
54979;SDS011;44101;50.462;30.432;2022-08-05T00:51:21;9.70;;;8.80;;
54979;SDS011;44101;50.462;30.432;2022-08-05T00:53:47;10.93;;;9.80;;
54979;SDS011;44101;50.462;30.432;2022-08-05T00:56:14;9.82;;;8.82;;
54979;SDS011;44101;50.462;30.432;2022-08-05T00:58:40;10.32;;;9.32;;
54979;SDS011;44101;50.462;30.432;2022-08-05T01:01:06;10.95;;;9.65;;
54979;SDS011;44101;50.462;30.432;2022-08-05T01:03:33;14.07;;;9.15;;
54979;SDS011;44101;50.462;30.432;2022-08-05T01:05:59;10.80;;;9.23;;
54979;SDS011;44101;50.462;30.432;2022-08-05T01:08:25;9.27;;;8.38;;
54979;SDS011;44101;50.462;30.432;2022-08-05T01:10:51;10.88;;;8.80;;
54979;SDS011;44101;50.462;30.432;2022-08-05T01:13:23;10.55;;;9.45;;
54979;SDS011;44101;50.462;30.432;2022-08-05T01:15:58;9.93;;;8.93;;
54979;SDS011;44101;50.462;30.432;2022-08-05T01:18:29;13.48;;;9.48;;
54979;SDS011;44101;50.462;30.432;2022-08-05T01:27:08;10.30;;;8.63;;
54979;SDS011;44101;50.462;30.432;2022-08-05T01:29:39;10.02;;;9.02;;
54979;SDS011;44101;50.462;30.432;2022-08-05T01:32:10;9.85;;;8.88;;
54979;SDS011;44101;50.462;30.432;2022-08-05T01:37:45;11.40;;;9.50;;
54979;SDS011;44101;50.462;30.432;2022-08-05T01:40:16;9.27;;;8.30;;
54979;SDS011;44101;50.462;30.432;2022-08-05T01:42:45;9.88;;;8.88;;
54979;SDS011;44101;50.462;30.432;2022-08-05T01:45:13;11.15;;;10.05;;
54979;SDS011;44101;50.462;30.432;2022-08-05T01:47:40;10.35;;;9.32;;
54979;SDS011;44101;50.462;30.432;2022-08-05T01:50:08;11.73;;;9.45;;
54979;SDS011;44101;50.462;30.432;2022-08-05T01:52:37;9.77;;;8.82;;
54979;SDS011;44101;50.462;30.432;2022-08-05T01:55:05;12.65;;;10.30;;
54979;SDS011;44101;50.462;30.432;2022-08-05T01:57:35;15.20;;;11.60;;
54979;SDS011;44101;50.462;30.432;2022-08-05T02:00:04;16.67;;;10.98;;
54979;SDS011;44101;50.462;30.432;2022-08-05T02:02:32;12.52;;;9.70;;
54979;SDS011;44101;50.462;30.432;2022-08-05T02:05:02;13.85;;;10.82;;
54979;SDS011;44101;50.462;30.432;2022-08-05T02:07:30;12.68;;;10.05;;
54979;SDS011;44101;50.462;30.432;2022-08-05T02:09:57;17.50;;;11.15;;
54979;SDS011;44101;50.462;30.432;2022-08-05T02:12:32;12.43;;;10.60;;
54979;SDS011;44101;50.462;30.432;2022-08-05T02:15:11;15.82;;;12.15;;
54979;SDS011;44101;50.462;30.432;2022-08-05T02:18:01;13.13;;;10.63;;
54979;SDS011;44101;50.462;30.432;2022-08-05T02:20:31;11.82;;;10.63;;
54979;SDS011;44101;50.462;30.432;2022-08-05T02:23:04;10.93;;;9.57;;
54979;SDS011;44101;50.462;30.432;2022-08-05T02:25:35;10.15;;;8.38;;
54979;SDS011;44101;50.462;30.432;2022-08-05T02:28:04;12.80;;;9.10;;
54979;SDS011;44101;50.462;30.432;2022-08-05T02:30:37;13.20;;;9.25;;
54979;SDS011;44101;50.462;30.432;2022-08-05T02:33:07;10.63;;;9.63;;
54979;SDS011;44101;50.462;30.432;2022-08-05T02:35:35;15.20;;;9.73;;
54979;SDS011;44101;50.462;30.432;2022-08-05T02:38:03;10.25;;;9.23;;
54979;SDS011;44101;50.462;30.432;2022-08-05T02:40:30;9.85;;;8.45;;
54979;SDS011;44101;50.462;30.432;2022-08-05T02:42:57;13.07;;;9.18;;
54979;SDS011;44101;50.462;30.432;2022-08-05T02:45:24;14.38;;;9.10;;
54979;SDS011;44101;50.462;30.432;2022-08-05T02:47:50;10.50;;;9.27;;
54979;SDS011;44101;50.462;30.432;2022-08-05T02:50:19;12.20;;;8.60;;
54979;SDS011;44101;50.462;30.432;2022-08-05T02:52:47;10.57;;;8.52;;
54979;SDS011;44101;50.462;30.432;2022-08-05T02:55:13;10.32;;;8.32;;
54979;SDS011;44101;50.462;30.432;2022-08-05T02:57:39;10.23;;;8.52;;
54979;SDS011;44101;50.462;30.432;2022-08-05T03:00:06;9.65;;;8.43;;
54979;SDS011;44101;50.462;30.432;2022-08-05T03:02:36;11.02;;;8.18;;
54979;SDS011;44101;50.462;30.432;2022-08-05T03:05:03;11.13;;;7.88;;
54979;SDS011;44101;50.462;30.432;2022-08-05T03:07:32;8.95;;;8.10;;
54979;SDS011;44101;50.462;30.432;2022-08-05T03:09:59;9.48;;;7.53;;
54979;SDS011;44101;50.462;30.432;2022-08-05T03:12:31;9.57;;;8.63;;
54979;SDS011;44101;50.462;30.432;2022-08-05T03:14:58;9.02;;;8.02;;
54979;SDS011;44101;50.462;30.432;2022-08-05T03:17:24;9.13;;;8.23;;
54979;SDS011;44101;50.462;30.432;2022-08-05T03:19:50;8.80;;;7.90;;
54979;SDS011;44101;50.462;30.432;2022-08-05T03:22:16;9.27;;;8.18;;
54979;SDS011;44101;50.462;30.432;2022-08-05T03:24:45;12.02;;;8.48;;
54979;SDS011;44101;50.462;30.432;2022-08-05T03:27:13;12.20;;;8.52;;
54979;SDS011;44101;50.462;30.432;2022-08-05T03:29:39;9.95;;;8.65;;
54979;SDS011;44101;50.462;30.432;2022-08-05T03:32:05;11.15;;;8.20;;
54979;SDS011;44101;50.462;30.432;2022-08-05T03:34:32;13.40;;;9.27;;
54979;SDS011;44101;50.462;30.432;2022-08-05T03:36:59;9.63;;;8.63;;
54979;SDS011;44101;50.462;30.432;2022-08-05T03:39:25;10.40;;;8.85;;
54979;SDS011;44101;50.462;30.432;2022-08-05T03:41:50;12.43;;;9.75;;
54979;SDS011;44101;50.462;30.432;2022-08-05T03:44:16;11.13;;;9.55;;
54979;SDS011;44101;50.462;30.432;2022-08-05T03:46:41;11.20;;;9.05;;
54979;SDS011;44101;50.462;30.432;2022-08-05T03:49:07;10.18;;;9.18;;
54979;SDS011;44101;50.462;30.432;2022-08-05T03:51:37;9.85;;;8.90;;
54979;SDS011;44101;50.462;30.432;2022-08-05T03:54:09;10.48;;;9.52;;
54979;SDS011;44101;50.462;30.432;2022-08-05T03:56:42;13.88;;;10.65;;
54979;SDS011;44101;50.462;30.432;2022-08-05T03:59:12;10.65;;;9.60;;
54979;SDS011;44101;50.462;30.432;2022-08-05T04:02:02;10.88;;;9.77;;
54979;SDS011;44101;50.462;30.432;2022-08-05T04:04:29;11.02;;;10.02;;
54979;SDS011;44101;50.462;30.432;2022-08-05T04:06:58;12.77;;;9.95;;
54979;SDS011;44101;50.462;30.432;2022-08-05T04:09:24;14.52;;;10.38;;
54979;SDS011;44101;50.462;30.432;2022-08-05T04:11:53;11.48;;;10.10;;
54979;SDS011;44101;50.462;30.432;2022-08-05T04:14:19;11.70;;;9.73;;
54979;SDS011;44101;50.462;30.432;2022-08-05T04:16:45;10.77;;;8.98;;
54979;SDS011;44101;50.462;30.432;2022-08-05T04:19:13;10.07;;;8.98;;
54979;SDS011;44101;50.462;30.432;2022-08-05T04:21:39;8.75;;;7.93;;
54979;SDS011;44101;50.462;30.432;2022-08-05T04:24:05;8.68;;;7.88;;
54979;SDS011;44101;50.462;30.432;2022-08-05T04:26:31;8.57;;;7.78;;
54979;SDS011;44101;50.462;30.432;2022-08-05T04:28:57;9.85;;;8.25;;
54979;SDS011;44101;50.462;30.432;2022-08-05T04:31:23;9.52;;;8.63;;
54979;SDS011;44101;50.462;30.432;2022-08-05T04:33:49;10.75;;;8.52;;
54979;SDS011;44101;50.462;30.432;2022-08-05T04:36:15;9.55;;;8.60;;
54979;SDS011;44101;50.462;30.432;2022-08-05T04:38:43;10.13;;;9.10;;
54979;SDS011;44101;50.462;30.432;2022-08-05T04:41:09;9.43;;;8.52;;
54979;SDS011;44101;50.462;30.432;2022-08-05T04:43:36;9.73;;;8.82;;
54979;SDS011;44101;50.462;30.432;2022-08-05T04:46:02;10.48;;;8.90;;
54979;SDS011;44101;50.462;30.432;2022-08-05T04:48:28;10.18;;;9.13;;
54979;SDS011;44101;50.462;30.432;2022-08-05T04:50:55;11.35;;;9.65;;
54979;SDS011;44101;50.462;30.432;2022-08-05T04:53:21;11.35;;;9.15;;
54979;SDS011;44101;50.462;30.432;2022-08-05T04:55:47;10.77;;;9.68;;
54979;SDS011;44101;50.462;30.432;2022-08-05T04:58:13;13.63;;;9.75;;
54979;SDS011;44101;50.462;30.432;2022-08-05T05:00:40;10.10;;;9.05;;
54979;SDS011;44101;50.462;30.432;2022-08-05T05:03:06;10.57;;;9.48;;
54979;SDS011;44101;50.462;30.432;2022-08-05T05:05:33;11.93;;;9.13;;
54979;SDS011;44101;50.462;30.432;2022-08-05T05:08:04;12.05;;;9.52;;
54979;SDS011;44101;50.462;30.432;2022-08-05T05:10:38;9.77;;;8.63;;
54979;SDS011;44101;50.462;30.432;2022-08-05T05:13:08;9.15;;;8.25;;
54979;SDS011;44101;50.462;30.432;2022-08-05T05:15:35;10.05;;;8.88;;
54979;SDS011;44101;50.462;30.432;2022-08-05T05:18:01;13.68;;;9.93;;
54979;SDS011;44101;50.462;30.432;2022-08-05T05:20:26;12.77;;;9.68;;
54979;SDS011;44101;50.462;30.432;2022-08-05T05:22:52;10.60;;;9.45;;
54979;SDS011;44101;50.462;30.432;2022-08-05T05:25:18;11.68;;;10.10;;
54979;SDS011;44101;50.462;30.432;2022-08-05T05:27:43;13.00;;;11.35;;
54979;SDS011;44101;50.462;30.432;2022-08-05T05:30:09;12.13;;;10.38;;
54979;SDS011;44101;50.462;30.432;2022-08-05T05:32:35;14.93;;;11.10;;
54979;SDS011;44101;50.462;30.432;2022-08-05T05:35:01;16.45;;;10.88;;
54979;SDS011;44101;50.462;30.432;2022-08-05T05:37:27;13.93;;;10.88;;
54979;SDS011;44101;50.462;30.432;2022-08-05T05:39:52;12.05;;;10.38;;
54979;SDS011;44101;50.462;30.432;2022-08-05T05:42:18;11.90;;;10.48;;
54979;SDS011;44101;50.462;30.432;2022-08-05T05:44:44;10.35;;;9.35;;
54979;SDS011;44101;50.462;30.432;2022-08-05T05:47:09;11.07;;;9.95;;
54979;SDS011;44101;50.462;30.432;2022-08-05T05:49:35;12.95;;;9.95;;
54979;SDS011;44101;50.462;30.432;2022-08-05T05:52:01;12.10;;;9.77;;
54979;SDS011;44101;50.462;30.432;2022-08-05T05:54:27;13.35;;;10.07;;
54979;SDS011;44101;50.462;30.432;2022-08-05T05:56:53;16.83;;;10.68;;
54979;SDS011;44101;50.462;30.432;2022-08-05T05:59:18;14.65;;;11.50;;
54979;SDS011;44101;50.462;30.432;2022-08-05T06:01:44;13.63;;;11.70;;
54979;SDS011;44101;50.462;30.432;2022-08-05T06:04:11;14.65;;;12.27;;
54979;SDS011;44101;50.462;30.432;2022-08-05T06:06:37;15.13;;;12.35;;
54979;SDS011;44101;50.462;30.432;2022-08-05T06:09:06;14.05;;;12.65;;
54979;SDS011;44101;50.462;30.432;2022-08-05T06:11:32;16.17;;;13.18;;
54979;SDS011;44101;50.462;30.432;2022-08-05T06:13:58;16.70;;;13.43;;
54979;SDS011;44101;50.462;30.432;2022-08-05T06:16:24;14.85;;;13.30;;
54979;SDS011;44101;50.462;30.432;2022-08-05T06:18:50;18.35;;;12.82;;
54979;SDS011;44101;50.462;30.432;2022-08-05T06:21:16;20.02;;;13.35;;
54979;SDS011;44101;50.462;30.432;2022-08-05T06:23:42;16.58;;;12.95;;
54979;SDS011;44101;50.462;30.432;2022-08-05T06:26:08;14.73;;;11.75;;
54979;SDS011;44101;50.462;30.432;2022-08-05T06:28:34;13.93;;;12.50;;
54979;SDS011;44101;50.462;30.432;2022-08-05T06:31:01;16.75;;;12.98;;
54979;SDS011;44101;50.462;30.432;2022-08-05T06:33:27;17.52;;;12.85;;
54979;SDS011;44101;50.462;30.432;2022-08-05T06:35:52;16.88;;;13.02;;
54979;SDS011;44101;50.462;30.432;2022-08-05T06:38:18;16.52;;;13.18;;
54979;SDS011;44101;50.462;30.432;2022-08-05T06:40:44;14.90;;;13.27;;
54979;SDS011;44101;50.462;30.432;2022-08-05T06:43:10;18.08;;;13.25;;
54979;SDS011;44101;50.462;30.432;2022-08-05T06:45:36;16.95;;;13.60;;
54979;SDS011;44101;50.462;30.432;2022-08-05T06:48:02;15.52;;;13.93;;
54979;SDS011;44101;50.462;30.432;2022-08-05T06:50:28;17.30;;;13.98;;
54979;SDS011;44101;50.462;30.432;2022-08-05T06:52:54;16.02;;;13.88;;
54979;SDS011;44101;50.462;30.432;2022-08-05T06:55:19;17.48;;;13.93;;
54979;SDS011;44101;50.462;30.432;2022-08-05T06:57:45;17.83;;;14.63;;
54979;SDS011;44101;50.462;30.432;2022-08-05T07:00:10;18.80;;;14.18;;
54979;SDS011;44101;50.462;30.432;2022-08-05T07:02:43;15.93;;;14.20;;
54979;SDS011;44101;50.462;30.432;2022-08-05T07:07:36;16.17;;;14.43;;
54979;SDS011;44101;50.462;30.432;2022-08-05T07:10:02;16.73;;;15.05;;
54979;SDS011;44101;50.462;30.432;2022-08-05T07:12:28;15.93;;;13.60;;
54979;SDS011;44101;50.462;30.432;2022-08-05T07:15:12;18.83;;;13.05;;
54979;SDS011;44101;50.462;30.432;2022-08-05T07:17:57;18.02;;;14.20;;
54979;SDS011;44101;50.462;30.432;2022-08-05T07:20:23;15.85;;;13.75;;
54979;SDS011;44101;50.462;30.432;2022-08-05T07:22:48;17.88;;;14.77;;
54979;SDS011;44101;50.462;30.432;2022-08-05T07:25:14;19.90;;;14.75;;
54979;SDS011;44101;50.462;30.432;2022-08-05T07:27:39;17.27;;;14.88;;
54979;SDS011;44101;50.462;30.432;2022-08-05T07:30:05;23.73;;;19.58;;
54979;SDS011;44101;50.462;30.432;2022-08-05T07:32:35;25.27;;;21.88;;
54979;SDS011;44101;50.462;30.432;2022-08-05T07:35:06;25.10;;;20.38;;
54979;SDS011;44101;50.462;30.432;2022-08-05T07:37:32;20.67;;;16.48;;
54979;SDS011;44101;50.462;30.432;2022-08-05T07:39:57;19.23;;;15.70;;
54979;SDS011;44101;50.462;30.432;2022-08-05T07:42:23;19.23;;;16.02;;
54979;SDS011;44101;50.462;30.432;2022-08-05T07:44:49;20.92;;;15.65;;
54979;SDS011;44101;50.462;30.432;2022-08-05T07:47:14;20.95;;;15.02;;
54979;SDS011;44101;50.462;30.432;2022-08-05T07:49:40;19.20;;;14.88;;
54979;SDS011;44101;50.462;30.432;2022-08-05T07:52:06;16.90;;;15.07;;
54979;SDS011;44101;50.462;30.432;2022-08-05T07:54:32;15.38;;;13.73;;
54979;SDS011;44101;50.462;30.432;2022-08-05T07:56:57;17.30;;;14.30;;
54979;SDS011;44101;50.462;30.432;2022-08-05T07:59:23;18.10;;;14.38;;
54979;SDS011;44101;50.462;30.432;2022-08-05T08:01:49;18.48;;;14.48;;
54979;SDS011;44101;50.462;30.432;2022-08-05T08:04:15;16.60;;;14.18;;
54979;SDS011;44101;50.462;30.432;2022-08-05T08:06:40;17.58;;;14.63;;
54979;SDS011;44101;50.462;30.432;2022-08-05T08:09:06;16.60;;;14.10;;
54979;SDS011;44101;50.462;30.432;2022-08-05T08:11:32;16.05;;;14.07;;
54979;SDS011;44101;50.462;30.432;2022-08-05T08:13:58;15.88;;;14.18;;
54979;SDS011;44101;50.462;30.432;2022-08-05T08:16:24;16.65;;;14.30;;
54979;SDS011;44101;50.462;30.432;2022-08-05T08:18:49;16.85;;;14.05;;
54979;SDS011;44101;50.462;30.432;2022-08-05T08:21:15;20.05;;;14.50;;
54979;SDS011;44101;50.462;30.432;2022-08-05T08:23:41;19.73;;;14.30;;
54979;SDS011;44101;50.462;30.432;2022-08-05T08:26:06;19.67;;;14.10;;
54979;SDS011;44101;50.462;30.432;2022-08-05T08:28:32;16.52;;;14.52;;
54979;SDS011;44101;50.462;30.432;2022-08-05T08:30:58;17.00;;;15.20;;
54979;SDS011;44101;50.462;30.432;2022-08-05T08:33:24;17.02;;;15.27;;
54979;SDS011;44101;50.462;30.432;2022-08-05T08:35:49;18.27;;;15.40;;
54979;SDS011;44101;50.462;30.432;2022-08-05T08:38:15;17.10;;;14.27;;
54979;SDS011;44101;50.462;30.432;2022-08-05T08:40:41;16.73;;;13.70;;
54979;SDS011;44101;50.462;30.432;2022-08-05T08:43:11;18.63;;;13.88;;
54979;SDS011;44101;50.462;30.432;2022-08-05T08:45:38;15.73;;;13.23;;
54979;SDS011;44101;50.462;30.432;2022-08-05T08:48:05;19.42;;;14.52;;
54979;SDS011;44101;50.462;30.432;2022-08-05T08:50:31;14.93;;;13.38;;
54979;SDS011;44101;50.462;30.432;2022-08-05T08:53:02;14.55;;;12.98;;
54979;SDS011;44101;50.462;30.432;2022-08-05T08:55:29;14.88;;;12.65;;
54979;SDS011;44101;50.462;30.432;2022-08-05T08:57:58;14.52;;;12.98;;
54979;SDS011;44101;50.462;30.432;2022-08-05T09:00:24;13.32;;;11.63;;
54979;SDS011;44101;50.462;30.432;2022-08-05T09:02:51;13.20;;;11.90;;
54979;SDS011;44101;50.462;30.432;2022-08-05T09:05:17;16.60;;;12.68;;
54979;SDS011;44101;50.462;30.432;2022-08-05T09:07:44;14.73;;;12.60;;
54979;SDS011;44101;50.462;30.432;2022-08-05T09:10:10;13.93;;;12.05;;
54979;SDS011;44101;50.462;30.432;2022-08-05T09:12:36;15.60;;;12.20;;
54979;SDS011;44101;50.462;30.432;2022-08-05T09:15:03;14.68;;;12.45;;
54979;SDS011;44101;50.462;30.432;2022-08-05T09:17:30;16.95;;;13.50;;
54979;SDS011;44101;50.462;30.432;2022-08-05T09:19:57;15.02;;;12.05;;
54979;SDS011;44101;50.462;30.432;2022-08-05T09:22:23;18.60;;;12.48;;
54979;SDS011;44101;50.462;30.432;2022-08-05T09:24:56;13.30;;;11.88;;
54979;SDS011;44101;50.462;30.432;2022-08-05T09:30:00;14.15;;;12.20;;
54979;SDS011;44101;50.462;30.432;2022-08-05T09:32:33;19.02;;;13.02;;
54979;SDS011;44101;50.462;30.432;2022-08-05T09:35:03;15.05;;;12.50;;
54979;SDS011;44101;50.462;30.432;2022-08-05T09:37:36;14.65;;;11.77;;
54979;SDS011;44101;50.462;30.432;2022-08-05T09:40:02;14.60;;;11.95;;
54979;SDS011;44101;50.462;30.432;2022-08-05T09:42:39;22.77;;;16.90;;
54979;SDS011;44101;50.462;30.432;2022-08-05T09:45:05;15.85;;;12.23;;
54979;SDS011;44101;50.462;30.432;2022-08-05T09:47:32;13.68;;;11.95;;
54979;SDS011;44101;50.462;30.432;2022-08-05T09:49:58;14.10;;;11.73;;
54979;SDS011;44101;50.462;30.432;2022-08-05T09:52:26;13.75;;;11.93;;
54979;SDS011;44101;50.462;30.432;2022-08-05T09:54:58;14.60;;;11.90;;
54979;SDS011;44101;50.462;30.432;2022-08-05T09:57:35;15.38;;;12.57;;
54979;SDS011;44101;50.462;30.432;2022-08-05T10:00:09;17.80;;;13.63;;
54979;SDS011;44101;50.462;30.432;2022-08-05T10:02:39;15.77;;;12.60;;
54979;SDS011;44101;50.462;30.432;2022-08-05T10:05:10;14.07;;;12.57;;
54979;SDS011;44101;50.462;30.432;2022-08-05T10:07:41;16.60;;;13.93;;
54979;SDS011;44101;50.462;30.432;2022-08-05T10:10:36;18.20;;;13.77;;
54979;SDS011;44101;50.462;30.432;2022-08-05T10:13:08;15.35;;;13.15;;
54979;SDS011;44101;50.462;30.432;2022-08-05T10:15:38;15.50;;;13.77;;
54979;SDS011;44101;50.462;30.432;2022-08-05T10:18:06;16.17;;;13.35;;
54979;SDS011;44101;50.462;30.432;2022-08-05T10:20:45;13.93;;;12.43;;
54979;SDS011;44101;50.462;30.432;2022-08-05T10:23:27;15.32;;;13.02;;
54979;SDS011;44101;50.462;30.432;2022-08-05T10:25:58;15.65;;;12.82;;
54979;SDS011;44101;50.462;30.432;2022-08-05T10:28:36;16.17;;;12.98;;
54979;SDS011;44101;50.462;30.432;2022-08-05T10:31:01;18.55;;;12.73;;
54979;SDS011;44101;50.462;30.432;2022-08-05T10:33:28;21.88;;;15.50;;
54979;SDS011;44101;50.462;30.432;2022-08-05T10:35:56;16.40;;;13.77;;
54979;SDS011;44101;50.462;30.432;2022-08-05T10:38:24;16.38;;;13.73;;
54979;SDS011;44101;50.462;30.432;2022-08-05T10:46:13;15.05;;;13.50;;
54979;SDS011;44101;50.462;30.432;2022-08-05T10:48:43;15.52;;;13.90;;
54979;SDS011;44101;50.462;30.432;2022-08-05T10:51:14;18.15;;;14.35;;
54979;SDS011;44101;50.462;30.432;2022-08-05T10:56:15;16.90;;;14.82;;
54979;SDS011;44101;50.462;30.432;2022-08-05T11:01:32;16.30;;;14.60;;
54979;SDS011;44101;50.462;30.432;2022-08-05T11:04:03;16.67;;;14.77;;
54979;SDS011;44101;50.462;30.432;2022-08-05T11:09:25;20.15;;;15.55;;
54979;SDS011;44101;50.462;30.432;2022-08-05T11:11:53;19.08;;;14.40;;
54979;SDS011;44101;50.462;30.432;2022-08-05T11:17:23;16.65;;;14.95;;
54979;SDS011;44101;50.462;30.432;2022-08-05T11:19:53;17.35;;;15.55;;
54979;SDS011;44101;50.462;30.432;2022-08-05T11:27:56;15.93;;;14.15;;
54979;SDS011;44101;50.462;30.432;2022-08-05T11:35:56;15.48;;;13.98;;
54979;SDS011;44101;50.462;30.432;2022-08-05T11:48:55;15.02;;;13.57;;
54979;SDS011;44101;50.462;30.432;2022-08-05T11:51:22;14.43;;;12.93;;
54979;SDS011;44101;50.462;30.432;2022-08-05T11:53:48;15.10;;;13.50;;
54979;SDS011;44101;50.462;30.432;2022-08-05T11:56:14;12.98;;;11.68;;
54979;SDS011;44101;50.462;30.432;2022-08-05T11:58:41;16.00;;;13.50;;
54979;SDS011;44101;50.462;30.432;2022-08-05T12:01:10;20.48;;;12.60;;
54979;SDS011;44101;50.462;30.432;2022-08-05T12:06:09;14.30;;;12.60;;
54979;SDS011;44101;50.462;30.432;2022-08-05T12:08:40;13.32;;;12.02;;
54979;SDS011;44101;50.462;30.432;2022-08-05T12:11:20;14.82;;;12.25;;
54979;SDS011;44101;50.462;30.432;2022-08-05T12:16:23;13.35;;;12.02;;
54979;SDS011;44101;50.462;30.432;2022-08-05T12:18:50;14.13;;;12.75;;
54979;SDS011;44101;50.462;30.432;2022-08-05T12:21:20;14.63;;;11.57;;
54979;SDS011;44101;50.462;30.432;2022-08-05T12:23:57;15.02;;;12.48;;
54979;SDS011;44101;50.462;30.432;2022-08-05T12:26:31;13.25;;;11.95;;
54979;SDS011;44101;50.462;30.432;2022-08-05T12:28:57;12.32;;;11.13;;
54979;SDS011;44101;50.462;30.432;2022-08-05T12:31:23;13.25;;;11.85;;
54979;SDS011;44101;50.462;30.432;2022-08-05T12:33:49;13.02;;;11.55;;
54979;SDS011;44101;50.462;30.432;2022-08-05T12:36:15;12.95;;;11.02;;
54979;SDS011;44101;50.462;30.432;2022-08-05T12:38:41;12.98;;;11.68;;
54979;SDS011;44101;50.462;30.432;2022-08-05T12:41:08;12.25;;;11.05;;
54979;SDS011;44101;50.462;30.432;2022-08-05T12:43:47;14.15;;;11.95;;
54979;SDS011;44101;50.462;30.432;2022-08-05T12:46:20;12.05;;;10.95;;
54979;SDS011;44101;50.462;30.432;2022-08-05T12:48:47;12.25;;;11.02;;
54979;SDS011;44101;50.462;30.432;2022-08-05T12:54:10;11.30;;;10.30;;
54979;SDS011;44101;50.462;30.432;2022-08-05T12:56:42;13.35;;;9.98;;
54979;SDS011;44101;50.462;30.432;2022-08-05T12:59:24;11.65;;;10.50;;
54979;SDS011;44101;50.462;30.432;2022-08-05T13:04:34;13.80;;;9.73;;
54979;SDS011;44101;50.462;30.432;2022-08-05T13:07:03;11.43;;;9.15;;
54979;SDS011;44101;50.462;30.432;2022-08-05T13:09:31;10.60;;;9.60;;
54979;SDS011;44101;50.462;30.432;2022-08-05T13:12:03;10.95;;;9.85;;
54979;SDS011;44101;50.462;30.432;2022-08-05T13:14:34;10.70;;;9.73;;
54979;SDS011;44101;50.462;30.432;2022-08-05T13:17:05;13.45;;;9.77;;
54979;SDS011;44101;50.462;30.432;2022-08-05T13:19:33;10.85;;;9.77;;
54979;SDS011;44101;50.462;30.432;2022-08-05T13:21:59;9.85;;;8.93;;
54979;SDS011;44101;50.462;30.432;2022-08-05T13:24:24;9.63;;;8.82;;
54979;SDS011;44101;50.462;30.432;2022-08-05T13:26:50;12.07;;;9.60;;
54979;SDS011;44101;50.462;30.432;2022-08-05T13:29:16;10.18;;;9.05;;
54979;SDS011;44101;50.462;30.432;2022-08-05T13:31:44;9.75;;;8.75;;
54979;SDS011;44101;50.462;30.432;2022-08-05T13:34:10;10.52;;;8.32;;
54979;SDS011;44101;50.462;30.432;2022-08-05T13:36:37;10.25;;;9.20;;
54979;SDS011;44101;50.462;30.432;2022-08-05T13:39:03;9.15;;;8.35;;
54979;SDS011;44101;50.462;30.432;2022-08-05T13:41:31;9.10;;;8.35;;
54979;SDS011;44101;50.462;30.432;2022-08-05T13:43:57;12.73;;;9.05;;
54979;SDS011;44101;50.462;30.432;2022-08-05T13:46:23;11.32;;;8.80;;
54979;SDS011;44101;50.462;30.432;2022-08-05T13:48:50;9.07;;;8.02;;
54979;SDS011;44101;50.462;30.432;2022-08-05T13:51:23;9.73;;;8.75;;
54979;SDS011;44101;50.462;30.432;2022-08-05T13:53:53;10.57;;;8.50;;
54979;SDS011;44101;50.462;30.432;2022-08-05T13:56:19;9.18;;;8.25;;
54979;SDS011;44101;50.462;30.432;2022-08-05T13:58:45;11.75;;;8.45;;
54979;SDS011;44101;50.462;30.432;2022-08-05T14:01:11;10.05;;;9.15;;
54979;SDS011;44101;50.462;30.432;2022-08-05T14:03:36;9.43;;;8.63;;
54979;SDS011;44101;50.462;30.432;2022-08-05T14:06:02;10.35;;;8.55;;
54979;SDS011;44101;50.462;30.432;2022-08-05T14:08:28;9.35;;;8.57;;
54979;SDS011;44101;50.462;30.432;2022-08-05T14:10:54;8.60;;;7.80;;
54979;SDS011;44101;50.462;30.432;2022-08-05T14:13:19;9.73;;;8.73;;
54979;SDS011;44101;50.462;30.432;2022-08-05T14:15:45;9.82;;;8.35;;
54979;SDS011;44101;50.462;30.432;2022-08-05T14:18:13;9.05;;;7.93;;
54979;SDS011;44101;50.462;30.432;2022-08-05T14:20:39;9.98;;;7.80;;
54979;SDS011;44101;50.462;30.432;2022-08-05T14:23:05;8.95;;;7.22;;
54979;SDS011;44101;50.462;30.432;2022-08-05T14:25:31;8.05;;;7.22;;
54979;SDS011;44101;50.462;30.432;2022-08-05T14:27:56;9.05;;;8.15;;
54979;SDS011;44101;50.462;30.432;2022-08-05T14:30:22;8.88;;;7.97;;
54979;SDS011;44101;50.462;30.432;2022-08-05T14:32:49;8.35;;;7.55;;
54979;SDS011;44101;50.462;30.432;2022-08-05T14:35:15;8.80;;;7.90;;
54979;SDS011;44101;50.462;30.432;2022-08-05T14:37:41;13.15;;;8.77;;
54979;SDS011;44101;50.462;30.432;2022-08-05T14:40:06;8.45;;;7.55;;
54979;SDS011;44101;50.462;30.432;2022-08-05T14:42:33;9.48;;;7.32;;
54979;SDS011;44101;50.462;30.432;2022-08-05T14:44:59;9.52;;;7.63;;
54979;SDS011;44101;50.462;30.432;2022-08-05T14:47:25;10.13;;;8.25;;
54979;SDS011;44101;50.462;30.432;2022-08-05T14:49:51;8.02;;;7.20;;
54979;SDS011;44101;50.462;30.432;2022-08-05T14:52:17;8.38;;;7.68;;
54979;SDS011;44101;50.462;30.432;2022-08-05T14:54:44;7.95;;;7.25;;
54979;SDS011;44101;50.462;30.432;2022-08-05T14:57:09;8.45;;;6.68;;
54979;SDS011;44101;50.462;30.432;2022-08-05T14:59:35;7.97;;;7.30;;
54979;SDS011;44101;50.462;30.432;2022-08-05T15:02:01;8.32;;;7.45;;
54979;SDS011;44101;50.462;30.432;2022-08-05T15:04:27;7.55;;;6.82;;
54979;SDS011;44101;50.462;30.432;2022-08-05T15:06:53;9.18;;;7.55;;
54979;SDS011;44101;50.462;30.432;2022-08-05T15:09:19;8.10;;;7.07;;
54979;SDS011;44101;50.462;30.432;2022-08-05T15:11:46;8.30;;;7.18;;
54979;SDS011;44101;50.462;30.432;2022-08-05T15:14:12;7.70;;;6.85;;
54979;SDS011;44101;50.462;30.432;2022-08-05T15:16:38;9.85;;;7.25;;
54979;SDS011;44101;50.462;30.432;2022-08-05T15:19:04;7.53;;;6.82;;
54979;SDS011;44101;50.462;30.432;2022-08-05T15:21:30;7.10;;;6.40;;